sensor_id;sensor_type;location;lat;lon;timestamp;P1;durP1;ratioP1;P2;durP2;ratioP2
55497;SDS011;41357;52.806;18.268;2022-08-03T00:01:59;9.40;;;3.80;;
55497;SDS011;41357;52.806;18.268;2022-08-03T00:04:28;9.35;;;4.20;;
55497;SDS011;41357;52.806;18.268;2022-08-03T00:06:54;15.70;;;4.10;;
55497;SDS011;41357;52.806;18.268;2022-08-03T00:09:20;8.70;;;4.10;;
55497;SDS011;41357;52.806;18.268;2022-08-03T00:11:46;13.35;;;4.43;;
55497;SDS011;41357;52.806;18.268;2022-08-03T00:14:12;12.05;;;4.45;;
55497;SDS011;41357;52.806;18.268;2022-08-03T00:16:38;9.15;;;4.30;;
55497;SDS011;41357;52.806;18.268;2022-08-03T00:19:04;9.73;;;4.13;;
55497;SDS011;41357;52.806;18.268;2022-08-03T00:21:30;13.60;;;4.38;;
55497;SDS011;41357;52.806;18.268;2022-08-03T00:23:56;12.95;;;5.10;;
55497;SDS011;41357;52.806;18.268;2022-08-03T00:26:23;12.77;;;4.50;;
55497;SDS011;41357;52.806;18.268;2022-08-03T00:28:49;9.98;;;4.68;;
55497;SDS011;41357;52.806;18.268;2022-08-03T00:31:15;11.98;;;4.43;;
55497;SDS011;41357;52.806;18.268;2022-08-03T00:33:41;12.57;;;5.07;;
55497;SDS011;41357;52.806;18.268;2022-08-03T00:36:07;14.02;;;4.82;;
55497;SDS011;41357;52.806;18.268;2022-08-03T00:38:34;16.40;;;4.30;;
55497;SDS011;41357;52.806;18.268;2022-08-03T00:41:00;8.98;;;4.88;;
55497;SDS011;41357;52.806;18.268;2022-08-03T00:43:26;13.63;;;5.53;;
55497;SDS011;41357;52.806;18.268;2022-08-03T00:45:52;14.77;;;4.38;;
55497;SDS011;41357;52.806;18.268;2022-08-03T00:48:21;15.55;;;5.05;;
55497;SDS011;41357;52.806;18.268;2022-08-03T00:50:49;11.68;;;5.05;;
55497;SDS011;41357;52.806;18.268;2022-08-03T00:53:15;11.82;;;4.38;;
55497;SDS011;41357;52.806;18.268;2022-08-03T00:55:41;10.15;;;4.85;;
55497;SDS011;41357;52.806;18.268;2022-08-03T00:58:08;13.95;;;5.32;;
55497;SDS011;41357;52.806;18.268;2022-08-03T01:00:36;15.98;;;5.32;;
55497;SDS011;41357;52.806;18.268;2022-08-03T01:03:06;10.77;;;5.43;;
55497;SDS011;41357;52.806;18.268;2022-08-03T01:05:43;14.23;;;5.75;;
55497;SDS011;41357;52.806;18.268;2022-08-03T01:13:16;12.27;;;5.38;;
55497;SDS011;41357;52.806;18.268;2022-08-03T01:15:46;10.65;;;5.07;;
55497;SDS011;41357;52.806;18.268;2022-08-03T01:18:21;12.13;;;5.03;;
55497;SDS011;41357;52.806;18.268;2022-08-03T01:20:51;11.55;;;5.60;;
55497;SDS011;41357;52.806;18.268;2022-08-03T01:31:17;16.20;;;5.88;;
55497;SDS011;41357;52.806;18.268;2022-08-03T01:33:48;12.82;;;6.07;;
55497;SDS011;41357;52.806;18.268;2022-08-03T01:36:21;12.03;;;5.07;;
55497;SDS011;41357;52.806;18.268;2022-08-03T01:38:49;14.95;;;5.38;;
55497;SDS011;41357;52.806;18.268;2022-08-03T01:41:16;21.23;;;5.55;;
55497;SDS011;41357;52.806;18.268;2022-08-03T01:43:43;19.17;;;5.25;;
55497;SDS011;41357;52.806;18.268;2022-08-03T01:46:12;10.05;;;5.07;;
55497;SDS011;41357;52.806;18.268;2022-08-03T01:48:39;13.00;;;5.15;;
55497;SDS011;41357;52.806;18.268;2022-08-03T01:51:07;11.93;;;4.88;;
55497;SDS011;41357;52.806;18.268;2022-08-03T01:53:34;8.18;;;4.32;;
55497;SDS011;41357;52.806;18.268;2022-08-03T01:56:00;18.58;;;5.28;;
55497;SDS011;41357;52.806;18.268;2022-08-03T01:58:27;12.20;;;5.45;;
55497;SDS011;41357;52.806;18.268;2022-08-03T02:00:54;16.63;;;4.90;;
55497;SDS011;41357;52.806;18.268;2022-08-03T02:03:25;11.10;;;5.25;;
55497;SDS011;41357;52.806;18.268;2022-08-03T02:05:51;13.73;;;5.10;;
55497;SDS011;41357;52.806;18.268;2022-08-03T02:08:18;13.77;;;4.93;;
55497;SDS011;41357;52.806;18.268;2022-08-03T02:10:45;10.95;;;4.72;;
55497;SDS011;41357;52.806;18.268;2022-08-03T02:13:11;14.25;;;5.00;;
55497;SDS011;41357;52.806;18.268;2022-08-03T02:15:38;10.90;;;5.20;;
55497;SDS011;41357;52.806;18.268;2022-08-03T02:18:06;13.40;;;5.65;;
55497;SDS011;41357;52.806;18.268;2022-08-03T02:20:34;14.95;;;5.18;;
55497;SDS011;41357;52.806;18.268;2022-08-03T02:23:02;10.10;;;5.97;;
55497;SDS011;41357;52.806;18.268;2022-08-03T02:25:28;12.95;;;5.43;;
55497;SDS011;41357;52.806;18.268;2022-08-03T02:27:55;13.77;;;5.53;;
55497;SDS011;41357;52.806;18.268;2022-08-03T02:30:27;10.38;;;5.18;;
55497;SDS011;41357;52.806;18.268;2022-08-03T02:32:55;15.80;;;5.13;;
55497;SDS011;41357;52.806;18.268;2022-08-03T02:35:23;11.68;;;5.20;;
55497;SDS011;41357;52.806;18.268;2022-08-03T02:37:51;10.50;;;4.60;;
55497;SDS011;41357;52.806;18.268;2022-08-03T02:40:18;8.43;;;4.63;;
55497;SDS011;41357;52.806;18.268;2022-08-03T02:42:45;11.95;;;4.57;;
55497;SDS011;41357;52.806;18.268;2022-08-03T02:45:12;10.60;;;4.65;;
55497;SDS011;41357;52.806;18.268;2022-08-03T02:47:40;13.57;;;4.38;;
55497;SDS011;41357;52.806;18.268;2022-08-03T02:50:08;12.68;;;5.43;;
55497;SDS011;41357;52.806;18.268;2022-08-03T02:52:36;12.80;;;5.40;;
55497;SDS011;41357;52.806;18.268;2022-08-03T02:55:03;7.95;;;4.53;;
55497;SDS011;41357;52.806;18.268;2022-08-03T02:57:30;12.82;;;4.55;;
55497;SDS011;41357;52.806;18.268;2022-08-03T02:59:58;9.82;;;5.03;;
55497;SDS011;41357;52.806;18.268;2022-08-03T03:02:25;10.82;;;4.78;;
55497;SDS011;41357;52.806;18.268;2022-08-03T03:04:51;10.48;;;4.80;;
55497;SDS011;41357;52.806;18.268;2022-08-03T03:07:18;11.00;;;4.68;;
55497;SDS011;41357;52.806;18.268;2022-08-03T03:09:44;12.02;;;4.40;;
55497;SDS011;41357;52.806;18.268;2022-08-03T03:12:11;7.38;;;4.55;;
55497;SDS011;41357;52.806;18.268;2022-08-03T03:14:38;7.40;;;4.20;;
55497;SDS011;41357;52.806;18.268;2022-08-03T03:17:08;8.38;;;4.45;;
55497;SDS011;41357;52.806;18.268;2022-08-03T03:19:34;8.88;;;4.47;;
55497;SDS011;41357;52.806;18.268;2022-08-03T03:22:01;9.65;;;5.05;;
55497;SDS011;41357;52.806;18.268;2022-08-03T03:24:28;13.00;;;5.40;;
55497;SDS011;41357;52.806;18.268;2022-08-03T03:26:55;10.45;;;6.25;;
55497;SDS011;41357;52.806;18.268;2022-08-03T03:29:21;7.53;;;5.03;;
55497;SDS011;41357;52.806;18.268;2022-08-03T03:31:48;12.00;;;5.10;;
55497;SDS011;41357;52.806;18.268;2022-08-03T03:34:14;14.82;;;5.50;;
55497;SDS011;41357;52.806;18.268;2022-08-03T03:36:41;12.32;;;6.38;;
55497;SDS011;41357;52.806;18.268;2022-08-03T03:39:07;11.95;;;6.38;;
55497;SDS011;41357;52.806;18.268;2022-08-03T03:41:35;17.13;;;6.65;;
55497;SDS011;41357;52.806;18.268;2022-08-03T03:44:01;11.07;;;6.93;;
55497;SDS011;41357;52.806;18.268;2022-08-03T03:46:27;12.05;;;6.85;;
55497;SDS011;41357;52.806;18.268;2022-08-03T03:48:53;12.95;;;6.43;;
55497;SDS011;41357;52.806;18.268;2022-08-03T03:51:20;12.50;;;6.20;;
55497;SDS011;41357;52.806;18.268;2022-08-03T03:53:58;11.85;;;6.43;;
55497;SDS011;41357;52.806;18.268;2022-08-03T03:56:25;10.77;;;5.97;;
55497;SDS011;41357;52.806;18.268;2022-08-03T03:58:51;13.50;;;6.45;;
55497;SDS011;41357;52.806;18.268;2022-08-03T04:01:18;11.43;;;5.80;;
55497;SDS011;41357;52.806;18.268;2022-08-03T04:03:44;11.60;;;5.80;;
55497;SDS011;41357;52.806;18.268;2022-08-03T04:06:10;13.88;;;6.68;;
55497;SDS011;41357;52.806;18.268;2022-08-03T04:08:55;11.77;;;5.35;;
55497;SDS011;41357;52.806;18.268;2022-08-03T04:11:42;15.75;;;5.82;;
55497;SDS011;41357;52.806;18.268;2022-08-03T04:14:18;12.18;;;6.60;;
55497;SDS011;41357;52.806;18.268;2022-08-03T04:16:52;10.82;;;5.30;;
55497;SDS011;41357;52.806;18.268;2022-08-03T04:19:41;13.93;;;6.13;;
55497;SDS011;41357;52.806;18.268;2022-08-03T04:22:06;13.18;;;5.78;;
55497;SDS011;41357;52.806;18.268;2022-08-03T04:24:34;13.73;;;5.47;;
55497;SDS011;41357;52.806;18.268;2022-08-03T04:27:04;8.80;;;5.38;;
55497;SDS011;41357;52.806;18.268;2022-08-03T04:29:32;12.05;;;5.95;;
55497;SDS011;41357;52.806;18.268;2022-08-03T04:32:00;11.52;;;5.85;;
55497;SDS011;41357;52.806;18.268;2022-08-03T04:34:27;13.15;;;6.25;;
55497;SDS011;41357;52.806;18.268;2022-08-03T04:36:56;9.43;;;5.95;;
55497;SDS011;41357;52.806;18.268;2022-08-03T04:39:23;13.52;;;5.47;;
55497;SDS011;41357;52.806;18.268;2022-08-03T04:41:52;10.77;;;5.60;;
55497;SDS011;41357;52.806;18.268;2022-08-03T04:44:19;10.43;;;5.28;;
55497;SDS011;41357;52.806;18.268;2022-08-03T04:46:46;10.95;;;6.18;;
55497;SDS011;41357;52.806;18.268;2022-08-03T04:49:12;13.65;;;5.85;;
55497;SDS011;41357;52.806;18.268;2022-08-03T04:51:38;10.20;;;5.57;;
55497;SDS011;41357;52.806;18.268;2022-08-03T04:54:06;9.55;;;5.68;;
55497;SDS011;41357;52.806;18.268;2022-08-03T04:56:38;17.35;;;5.75;;
55497;SDS011;41357;52.806;18.268;2022-08-03T04:59:05;12.15;;;5.85;;
55497;SDS011;41357;52.806;18.268;2022-08-03T05:01:31;10.30;;;5.97;;
55497;SDS011;41357;52.806;18.268;2022-08-03T05:03:57;12.18;;;7.03;;
55497;SDS011;41357;52.806;18.268;2022-08-03T05:06:24;12.02;;;5.65;;
55497;SDS011;41357;52.806;18.268;2022-08-03T05:08:50;10.40;;;5.93;;
55497;SDS011;41357;52.806;18.268;2022-08-03T05:11:16;13.30;;;6.50;;
55497;SDS011;41357;52.806;18.268;2022-08-03T05:13:42;13.23;;;6.20;;
55497;SDS011;41357;52.806;18.268;2022-08-03T05:16:09;11.63;;;6.35;;
55497;SDS011;41357;52.806;18.268;2022-08-03T05:18:35;12.57;;;5.93;;
55497;SDS011;41357;52.806;18.268;2022-08-03T05:21:02;12.88;;;6.43;;
55497;SDS011;41357;52.806;18.268;2022-08-03T05:23:29;16.17;;;6.70;;
55497;SDS011;41357;52.806;18.268;2022-08-03T05:25:55;10.77;;;6.93;;
55497;SDS011;41357;52.806;18.268;2022-08-03T05:28:21;16.08;;;7.68;;
55497;SDS011;41357;52.806;18.268;2022-08-03T05:30:47;12.98;;;7.18;;
55497;SDS011;41357;52.806;18.268;2022-08-03T05:33:13;15.75;;;7.22;;
55497;SDS011;41357;52.806;18.268;2022-08-03T05:35:40;13.43;;;6.82;;
55497;SDS011;41357;52.806;18.268;2022-08-03T05:38:06;12.15;;;6.40;;
55497;SDS011;41357;52.806;18.268;2022-08-03T05:40:32;11.73;;;6.57;;
55497;SDS011;41357;52.806;18.268;2022-08-03T05:42:59;10.75;;;5.80;;
55497;SDS011;41357;52.806;18.268;2022-08-03T05:45:28;10.48;;;6.38;;
55497;SDS011;41357;52.806;18.268;2022-08-03T05:47:54;14.95;;;6.32;;
55497;SDS011;41357;52.806;18.268;2022-08-03T05:50:20;9.63;;;5.93;;
55497;SDS011;41357;52.806;18.268;2022-08-03T05:52:47;12.63;;;5.80;;
55497;SDS011;41357;52.806;18.268;2022-08-03T05:55:13;11.32;;;5.78;;
55497;SDS011;41357;52.806;18.268;2022-08-03T05:57:39;9.30;;;5.18;;
55497;SDS011;41357;52.806;18.268;2022-08-03T06:00:06;16.00;;;5.80;;
55497;SDS011;41357;52.806;18.268;2022-08-03T06:02:33;8.85;;;5.30;;
55497;SDS011;41357;52.806;18.268;2022-08-03T06:04:59;11.82;;;5.20;;
55497;SDS011;41357;52.806;18.268;2022-08-03T06:07:26;11.48;;;6.57;;
55497;SDS011;41357;52.806;18.268;2022-08-03T06:09:52;15.43;;;5.97;;
55497;SDS011;41357;52.806;18.268;2022-08-03T06:12:19;9.15;;;5.72;;
55497;SDS011;41357;52.806;18.268;2022-08-03T06:14:45;9.93;;;5.22;;
55497;SDS011;41357;52.806;18.268;2022-08-03T06:17:11;15.57;;;6.03;;
55497;SDS011;41357;52.806;18.268;2022-08-03T06:19:37;13.82;;;6.57;;
55497;SDS011;41357;52.806;18.268;2022-08-03T06:22:03;8.95;;;5.35;;
55497;SDS011;41357;52.806;18.268;2022-08-03T06:24:29;8.90;;;5.03;;
55497;SDS011;41357;52.806;18.268;2022-08-03T06:26:57;7.80;;;5.22;;
55497;SDS011;41357;52.806;18.268;2022-08-03T06:29:23;10.27;;;4.50;;
55497;SDS011;41357;52.806;18.268;2022-08-03T06:31:49;9.95;;;5.07;;
55497;SDS011;41357;52.806;18.268;2022-08-03T06:34:15;7.28;;;4.10;;
55497;SDS011;41357;52.806;18.268;2022-08-03T06:36:41;9.00;;;4.63;;
55497;SDS011;41357;52.806;18.268;2022-08-03T06:39:07;8.05;;;4.30;;
55497;SDS011;41357;52.806;18.268;2022-08-03T06:41:33;8.23;;;4.72;;
55497;SDS011;41357;52.806;18.268;2022-08-03T06:44:00;6.97;;;4.40;;
55497;SDS011;41357;52.806;18.268;2022-08-03T06:46:26;7.80;;;4.20;;
55497;SDS011;41357;52.806;18.268;2022-08-03T06:48:52;5.95;;;4.63;;
55497;SDS011;41357;52.806;18.268;2022-08-03T06:51:20;9.60;;;4.30;;
55497;SDS011;41357;52.806;18.268;2022-08-03T06:53:47;8.13;;;4.00;;
55497;SDS011;41357;52.806;18.268;2022-08-03T06:56:13;8.00;;;4.22;;
55497;SDS011;41357;52.806;18.268;2022-08-03T06:58:40;5.47;;;3.90;;
55497;SDS011;41357;52.806;18.268;2022-08-03T07:01:06;4.63;;;3.60;;
55497;SDS011;41357;52.806;18.268;2022-08-03T07:03:32;5.80;;;3.70;;
55497;SDS011;41357;52.806;18.268;2022-08-03T07:05:58;6.15;;;3.85;;
55497;SDS011;41357;52.806;18.268;2022-08-03T07:08:24;7.40;;;3.88;;
55497;SDS011;41357;52.806;18.268;2022-08-03T07:10:50;5.55;;;3.40;;
55497;SDS011;41357;52.806;18.268;2022-08-03T07:13:16;4.72;;;3.90;;
55497;SDS011;41357;52.806;18.268;2022-08-03T07:15:42;6.90;;;3.75;;
55497;SDS011;41357;52.806;18.268;2022-08-03T07:18:09;8.20;;;3.95;;
55497;SDS011;41357;52.806;18.268;2022-08-03T07:20:35;7.95;;;3.88;;
55497;SDS011;41357;52.806;18.268;2022-08-03T07:23:01;6.38;;;3.70;;
55497;SDS011;41357;52.806;18.268;2022-08-03T07:25:27;6.30;;;3.40;;
55497;SDS011;41357;52.806;18.268;2022-08-03T07:27:53;5.40;;;3.50;;
55497;SDS011;41357;52.806;18.268;2022-08-03T07:30:19;5.43;;;3.30;;
55497;SDS011;41357;52.806;18.268;2022-08-03T07:32:45;7.47;;;3.90;;
55497;SDS011;41357;52.806;18.268;2022-08-03T07:35:11;8.18;;;3.58;;
55497;SDS011;41357;52.806;18.268;2022-08-03T07:37:37;6.45;;;4.20;;
55497;SDS011;41357;52.806;18.268;2022-08-03T07:40:04;6.20;;;3.22;;
55497;SDS011;41357;52.806;18.268;2022-08-03T07:42:30;11.05;;;3.78;;
55497;SDS011;41357;52.806;18.268;2022-08-03T07:44:57;6.65;;;3.60;;
55497;SDS011;41357;52.806;18.268;2022-08-03T07:47:25;7.20;;;3.38;;
55497;SDS011;41357;52.806;18.268;2022-08-03T07:49:52;7.93;;;4.57;;
55497;SDS011;41357;52.806;18.268;2022-08-03T07:52:18;5.93;;;3.67;;
55497;SDS011;41357;52.806;18.268;2022-08-03T07:55:04;4.90;;;3.55;;
55497;SDS011;41357;52.806;18.268;2022-08-03T07:57:30;6.68;;;3.10;;
55497;SDS011;41357;52.806;18.268;2022-08-03T07:59:56;5.85;;;3.53;;
55497;SDS011;41357;52.806;18.268;2022-08-03T08:02:23;4.90;;;2.70;;
55497;SDS011;41357;52.806;18.268;2022-08-03T08:04:49;4.18;;;2.75;;
55497;SDS011;41357;52.806;18.268;2022-08-03T08:07:15;5.93;;;3.30;;
55497;SDS011;41357;52.806;18.268;2022-08-03T08:09:41;5.60;;;3.35;;
55497;SDS011;41357;52.806;18.268;2022-08-03T08:12:07;3.72;;;2.45;;
55497;SDS011;41357;52.806;18.268;2022-08-03T08:14:36;3.38;;;2.25;;
55497;SDS011;41357;52.806;18.268;2022-08-03T08:17:03;3.22;;;2.50;;
55497;SDS011;41357;52.806;18.268;2022-08-03T08:19:29;6.60;;;2.47;;
55497;SDS011;41357;52.806;18.268;2022-08-03T08:21:55;3.35;;;2.30;;
55497;SDS011;41357;52.806;18.268;2022-08-03T08:24:21;5.10;;;2.45;;
55497;SDS011;41357;52.806;18.268;2022-08-03T08:26:47;4.28;;;2.63;;
55497;SDS011;41357;52.806;18.268;2022-08-03T08:29:13;6.43;;;2.65;;
55497;SDS011;41357;52.806;18.268;2022-08-03T08:31:40;5.32;;;2.67;;
55497;SDS011;41357;52.806;18.268;2022-08-03T08:34:06;3.45;;;2.70;;
55497;SDS011;41357;52.806;18.268;2022-08-03T08:36:32;3.92;;;2.50;;
55497;SDS011;41357;52.806;18.268;2022-08-03T08:38:58;3.42;;;2.22;;
55497;SDS011;41357;52.806;18.268;2022-08-03T08:41:25;4.95;;;2.42;;
55497;SDS011;41357;52.806;18.268;2022-08-03T08:43:52;4.45;;;2.28;;
55497;SDS011;41357;52.806;18.268;2022-08-03T08:46:19;3.50;;;2.55;;
55497;SDS011;41357;52.806;18.268;2022-08-03T08:48:45;6.70;;;2.20;;
55497;SDS011;41357;52.806;18.268;2022-08-03T08:51:11;4.40;;;2.00;;
55497;SDS011;41357;52.806;18.268;2022-08-03T08:53:40;9.93;;;2.30;;
55497;SDS011;41357;52.806;18.268;2022-08-03T08:56:06;5.82;;;2.10;;
55497;SDS011;41357;52.806;18.268;2022-08-03T08:58:36;4.45;;;2.33;;
55497;SDS011;41357;52.806;18.268;2022-08-03T09:01:02;6.97;;;1.92;;
55497;SDS011;41357;52.806;18.268;2022-08-03T09:03:30;5.03;;;1.83;;
55497;SDS011;41357;52.806;18.268;2022-08-03T09:05:58;3.05;;;1.83;;
55497;SDS011;41357;52.806;18.268;2022-08-03T09:08:25;4.70;;;1.50;;
55497;SDS011;41357;52.806;18.268;2022-08-03T09:10:51;2.35;;;1.30;;
55497;SDS011;41357;52.806;18.268;2022-08-03T09:13:17;5.28;;;1.30;;
55497;SDS011;41357;52.806;18.268;2022-08-03T09:15:44;3.03;;;1.20;;
55497;SDS011;41357;52.806;18.268;2022-08-03T09:18:10;3.28;;;1.40;;
55497;SDS011;41357;52.806;18.268;2022-08-03T09:20:37;2.47;;;1.30;;
55497;SDS011;41357;52.806;18.268;2022-08-03T09:23:05;3.63;;;1.50;;
55497;SDS011;41357;52.806;18.268;2022-08-03T09:25:38;2.05;;;1.50;;
55497;SDS011;41357;52.806;18.268;2022-08-03T09:28:11;4.68;;;1.67;;
55497;SDS011;41357;52.806;18.268;2022-08-03T09:30:38;3.15;;;1.35;;
55497;SDS011;41357;52.806;18.268;2022-08-03T09:33:06;2.00;;;1.20;;
55497;SDS011;41357;52.806;18.268;2022-08-03T09:35:33;3.90;;;1.30;;
55497;SDS011;41357;52.806;18.268;2022-08-03T09:38:08;4.90;;;1.58;;
55497;SDS011;41357;52.806;18.268;2022-08-03T09:40:34;5.38;;;1.30;;
55497;SDS011;41357;52.806;18.268;2022-08-03T09:43:00;2.20;;;1.65;;
55497;SDS011;41357;52.806;18.268;2022-08-03T09:45:27;2.33;;;1.30;;
55497;SDS011;41357;52.806;18.268;2022-08-03T09:47:54;2.78;;;1.23;;
55497;SDS011;41357;52.806;18.268;2022-08-03T09:50:23;3.72;;;1.55;;
55497;SDS011;41357;52.806;18.268;2022-08-03T09:52:49;2.72;;;1.60;;
55497;SDS011;41357;52.806;18.268;2022-08-03T09:55:16;1.70;;;1.20;;
55497;SDS011;41357;52.806;18.268;2022-08-03T09:57:44;2.90;;;1.30;;
55497;SDS011;41357;52.806;18.268;2022-08-03T10:00:14;3.28;;;1.50;;
55497;SDS011;41357;52.806;18.268;2022-08-03T10:05:07;4.15;;;1.60;;
55497;SDS011;41357;52.806;18.268;2022-08-03T10:07:41;2.10;;;1.60;;
55497;SDS011;41357;52.806;18.268;2022-08-03T10:10:07;3.58;;;1.85;;
55497;SDS011;41357;52.806;18.268;2022-08-03T10:12:35;2.72;;;1.60;;
55497;SDS011;41357;52.806;18.268;2022-08-03T10:15:01;2.65;;;1.80;;
55497;SDS011;41357;52.806;18.268;2022-08-03T10:17:28;4.95;;;1.73;;
55497;SDS011;41357;52.806;18.268;2022-08-03T10:19:54;4.70;;;1.88;;
55497;SDS011;41357;52.806;18.268;2022-08-03T10:22:21;4.25;;;2.10;;
55497;SDS011;41357;52.806;18.268;2022-08-03T10:27:28;3.28;;;1.77;;
55497;SDS011;41357;52.806;18.268;2022-08-03T10:29:57;3.58;;;1.63;;
55497;SDS011;41357;52.806;18.268;2022-08-03T10:34:51;4.15;;;1.73;;
55497;SDS011;41357;52.806;18.268;2022-08-03T10:37:19;3.65;;;1.90;;
55497;SDS011;41357;52.806;18.268;2022-08-03T10:39:46;4.40;;;1.80;;
55497;SDS011;41357;52.806;18.268;2022-08-03T10:42:21;7.85;;;1.90;;
55497;SDS011;41357;52.806;18.268;2022-08-03T10:44:49;4.25;;;1.83;;
55497;SDS011;41357;52.806;18.268;2022-08-03T10:47:17;6.07;;;1.98;;
55497;SDS011;41357;52.806;18.268;2022-08-03T10:49:46;2.28;;;1.70;;
55497;SDS011;41357;52.806;18.268;2022-08-03T10:52:12;7.22;;;1.90;;
55497;SDS011;41357;52.806;18.268;2022-08-03T10:54:40;2.08;;;1.60;;
55497;SDS011;41357;52.806;18.268;2022-08-03T11:00:10;3.83;;;1.80;;
55497;SDS011;41357;52.806;18.268;2022-08-03T11:05:25;4.15;;;1.85;;
55497;SDS011;41357;52.806;18.268;2022-08-03T11:08:16;2.65;;;1.73;;
55497;SDS011;41357;52.806;18.268;2022-08-03T11:10:38;2.00;;;1.70;;
55497;SDS011;41357;52.806;18.268;2022-08-03T11:13:05;2.53;;;1.77;;
55497;SDS011;41357;52.806;18.268;2022-08-03T11:15:32;3.22;;;1.65;;
55497;SDS011;41357;52.806;18.268;2022-08-03T11:18:09;3.78;;;1.70;;
55497;SDS011;41357;52.806;18.268;2022-08-03T11:28:42;2.38;;;1.80;;
55497;SDS011;41357;52.806;18.268;2022-08-03T11:39:16;3.00;;;1.70;;
55497;SDS011;41357;52.806;18.268;2022-08-03T11:41:42;4.38;;;1.77;;
55497;SDS011;41357;52.806;18.268;2022-08-03T11:44:08;2.47;;;1.80;;
55497;SDS011;41357;52.806;18.268;2022-08-03T11:46:37;3.92;;;2.20;;
55497;SDS011;41357;52.806;18.268;2022-08-03T11:49:04;3.67;;;1.90;;
55497;SDS011;41357;52.806;18.268;2022-08-03T11:51:31;5.50;;;2.00;;
55497;SDS011;41357;52.806;18.268;2022-08-03T11:53:58;3.15;;;1.80;;
55497;SDS011;41357;52.806;18.268;2022-08-03T11:56:25;2.55;;;1.80;;
55497;SDS011;41357;52.806;18.268;2022-08-03T11:58:53;2.67;;;1.60;;
55497;SDS011;41357;52.806;18.268;2022-08-03T12:01:20;3.08;;;1.73;;
55497;SDS011;41357;52.806;18.268;2022-08-03T12:03:46;5.80;;;2.75;;
55497;SDS011;41357;52.806;18.268;2022-08-03T12:06:13;5.60;;;1.80;;
55497;SDS011;41357;52.806;18.268;2022-08-03T12:08:40;3.33;;;1.75;;
55497;SDS011;41357;52.806;18.268;2022-08-03T12:11:07;4.72;;;1.90;;
55497;SDS011;41357;52.806;18.268;2022-08-03T12:13:44;3.47;;;1.80;;
55497;SDS011;41357;52.806;18.268;2022-08-03T12:16:21;2.72;;;1.83;;
55497;SDS011;41357;52.806;18.268;2022-08-03T12:18:57;4.22;;;1.60;;
55497;SDS011;41357;52.806;18.268;2022-08-03T12:21:23;3.45;;;2.05;;
55497;SDS011;41357;52.806;18.268;2022-08-03T12:23:49;2.92;;;1.88;;
55497;SDS011;41357;52.806;18.268;2022-08-03T12:26:16;3.28;;;1.80;;
55497;SDS011;41357;52.806;18.268;2022-08-03T12:28:48;4.50;;;1.80;;
55497;SDS011;41357;52.806;18.268;2022-08-03T12:31:15;2.08;;;1.67;;
55497;SDS011;41357;52.806;18.268;2022-08-03T12:36:30;4.97;;;1.85;;
55497;SDS011;41357;52.806;18.268;2022-08-03T12:38:57;2.78;;;1.83;;
55497;SDS011;41357;52.806;18.268;2022-08-03T12:44:08;3.53;;;1.88;;
55497;SDS011;41357;52.806;18.268;2022-08-03T12:46:35;3.80;;;1.90;;
55497;SDS011;41357;52.806;18.268;2022-08-03T12:49:03;5.18;;;2.30;;
55497;SDS011;41357;52.806;18.268;2022-08-03T12:52:16;5.30;;;2.08;;
55497;SDS011;41357;52.806;18.268;2022-08-03T12:54:17;2.10;;;1.73;;
55497;SDS011;41357;52.806;18.268;2022-08-03T12:59:29;8.07;;;1.95;;
55497;SDS011;41357;52.806;18.268;2022-08-03T13:01:56;5.85;;;2.03;;
55497;SDS011;41357;52.806;18.268;2022-08-03T13:04:26;3.25;;;1.90;;
55497;SDS011;41357;52.806;18.268;2022-08-03T13:06:56;7.95;;;2.15;;
55497;SDS011;41357;52.806;18.268;2022-08-03T13:09:22;3.80;;;2.00;;
55497;SDS011;41357;52.806;18.268;2022-08-03T13:12:44;3.38;;;2.00;;
55497;SDS011;41357;52.806;18.268;2022-08-03T13:14:36;7.70;;;2.25;;
55497;SDS011;41357;52.806;18.268;2022-08-03T13:17:03;2.78;;;1.80;;
55497;SDS011;41357;52.806;18.268;2022-08-03T13:19:31;4.50;;;2.00;;
55497;SDS011;41357;52.806;18.268;2022-08-03T13:21:57;8.93;;;2.20;;
55497;SDS011;41357;52.806;18.268;2022-08-03T13:24:23;8.40;;;2.55;;
55497;SDS011;41357;52.806;18.268;2022-08-03T13:26:49;4.30;;;2.25;;
55497;SDS011;41357;52.806;18.268;2022-08-03T13:29:16;4.40;;;2.00;;
55497;SDS011;41357;52.806;18.268;2022-08-03T13:31:42;3.25;;;1.90;;
55497;SDS011;41357;52.806;18.268;2022-08-03T13:34:08;3.40;;;2.20;;
55497;SDS011;41357;52.806;18.268;2022-08-03T13:36:34;2.63;;;1.90;;
55497;SDS011;41357;52.806;18.268;2022-08-03T13:39:00;5.53;;;1.90;;
55497;SDS011;41357;52.806;18.268;2022-08-03T13:41:26;10.43;;;2.60;;
55497;SDS011;41357;52.806;18.268;2022-08-03T13:43:53;2.30;;;1.83;;
55497;SDS011;41357;52.806;18.268;2022-08-03T13:46:20;3.58;;;2.00;;
55497;SDS011;41357;52.806;18.268;2022-08-03T13:48:46;5.72;;;1.80;;
55497;SDS011;41357;52.806;18.268;2022-08-03T13:51:13;4.55;;;2.25;;
55497;SDS011;41357;52.806;18.268;2022-08-03T13:53:39;3.63;;;2.03;;
55497;SDS011;41357;52.806;18.268;2022-08-03T13:56:05;2.40;;;2.08;;
55497;SDS011;41357;52.806;18.268;2022-08-03T13:58:31;4.82;;;2.05;;
55497;SDS011;41357;52.806;18.268;2022-08-03T14:00:57;6.18;;;2.20;;
55497;SDS011;41357;52.806;18.268;2022-08-03T14:03:23;3.17;;;2.13;;
55497;SDS011;41357;52.806;18.268;2022-08-03T14:05:49;2.45;;;2.00;;
55497;SDS011;41357;52.806;18.268;2022-08-03T14:08:15;3.03;;;2.33;;
55497;SDS011;41357;52.806;18.268;2022-08-03T14:10:42;4.65;;;2.28;;
55497;SDS011;41357;52.806;18.268;2022-08-03T14:13:09;5.20;;;2.58;;
55497;SDS011;41357;52.806;18.268;2022-08-03T14:15:36;4.10;;;2.17;;
55497;SDS011;41357;52.806;18.268;2022-08-03T14:18:02;3.63;;;2.08;;
55497;SDS011;41357;52.806;18.268;2022-08-03T14:20:28;3.40;;;1.98;;
55497;SDS011;41357;52.806;18.268;2022-08-03T14:22:54;5.63;;;2.30;;
55497;SDS011;41357;52.806;18.268;2022-08-03T14:25:20;2.47;;;2.20;;
55497;SDS011;41357;52.806;18.268;2022-08-03T14:27:46;5.50;;;2.20;;
55497;SDS011;41357;52.806;18.268;2022-08-03T14:30:13;2.28;;;1.90;;
55497;SDS011;41357;52.806;18.268;2022-08-03T14:32:39;7.47;;;2.00;;
55497;SDS011;41357;52.806;18.268;2022-08-03T14:35:05;3.53;;;2.08;;
55497;SDS011;41357;52.806;18.268;2022-08-03T14:37:32;4.38;;;2.10;;
55497;SDS011;41357;52.806;18.268;2022-08-03T14:39:58;3.22;;;2.10;;
55497;SDS011;41357;52.806;18.268;2022-08-03T14:42:24;4.25;;;2.30;;
55497;SDS011;41357;52.806;18.268;2022-08-03T14:44:50;3.03;;;2.13;;
55497;SDS011;41357;52.806;18.268;2022-08-03T14:47:16;3.25;;;2.20;;
55497;SDS011;41357;52.806;18.268;2022-08-03T14:49:42;7.32;;;2.33;;
55497;SDS011;41357;52.806;18.268;2022-08-03T14:52:08;6.68;;;2.10;;
55497;SDS011;41357;52.806;18.268;2022-08-03T14:54:35;4.47;;;2.17;;
55497;SDS011;41357;52.806;18.268;2022-08-03T14:57:01;2.83;;;2.15;;
55497;SDS011;41357;52.806;18.268;2022-08-03T14:59:27;3.80;;;2.17;;
55497;SDS011;41357;52.806;18.268;2022-08-03T15:01:53;5.07;;;2.45;;
55497;SDS011;41357;52.806;18.268;2022-08-03T15:04:19;2.88;;;1.83;;
55497;SDS011;41357;52.806;18.268;2022-08-03T15:06:46;3.72;;;2.22;;
55497;SDS011;41357;52.806;18.268;2022-08-03T15:09:12;6.10;;;2.17;;
55497;SDS011;41357;52.806;18.268;2022-08-03T15:11:38;2.50;;;2.10;;
55497;SDS011;41357;52.806;18.268;2022-08-03T15:14:04;3.35;;;2.03;;
55497;SDS011;41357;52.806;18.268;2022-08-03T15:16:30;3.95;;;2.00;;
55497;SDS011;41357;52.806;18.268;2022-08-03T15:18:56;4.78;;;1.80;;
55497;SDS011;41357;52.806;18.268;2022-08-03T15:21:23;5.07;;;2.40;;
55497;SDS011;41357;52.806;18.268;2022-08-03T15:23:49;4.22;;;2.80;;